Windsor, North Dakota
Current Conditions -  °F | °C
As of 8:56 PM on Saturday 22 Nov 2014 (Local Time) from KJMS Reporting Station
Overcast Overcast  
Wind Chill: 27°   Ceiling: 9000
Heat Index: 33°   Visibility: 10mi
Dew Point: 28°   Wind: 7mph
Humidity: 82%   Direction: 190°S
Pressure: 29.32"   Gusts: NA
Location:  46.8919°N, 99.0696°W
Report Text: KJMS 230256Z AUTO 19006KT 10SM OVC090 01/M02 A2932 RMK AO2 SLP947 T00061022 56012
Loading
Personal Weather Stations






























Interactive Weather Map New forecast layout! Learn more

10-Day Weather Forecast

Advertisements
Track Severe Weather on mobile